sensor_id;sensor_type;location;lat;lon;timestamp;pressure;altitude;pressure_sealevel;temperature;humidity
19797;BME280;10058;57.654;12.044;2022-09-01T00:01:15;102057.81;;;11.00;100.00
19797;BME280;10058;57.654;12.044;2022-09-01T00:03:46;102068.25;;;10.97;100.00
19797;BME280;10058;57.654;12.044;2022-09-01T00:06:15;102069.66;;;10.89;100.00
19797;BME280;10058;57.654;12.044;2022-09-01T00:08:50;102073.66;;;10.81;100.00
19797;BME280;10058;57.654;12.044;2022-09-01T00:11:16;102061.97;;;10.58;100.00
19797;BME280;10058;57.654;12.044;2022-09-01T00:13:42;102074.38;;;10.59;100.00
19797;BME280;10058;57.654;12.044;2022-09-01T00:16:07;102070.00;;;10.60;100.00
19797;BME280;10058;57.654;12.044;2022-09-01T00:18:33;102070.59;;;10.72;100.00
19797;BME280;10058;57.654;12.044;2022-09-01T00:21:00;102069.78;;;10.73;100.00
19797;BME280;10058;57.654;12.044;2022-09-01T00:23:26;102070.59;;;10.72;100.00
19797;BME280;10058;57.654;12.044;2022-09-01T00:25:52;102064.19;;;10.67;100.00
19797;BME280;10058;57.654;12.044;2022-09-01T00:28:18;102053.97;;;10.57;100.00
19797;BME280;10058;57.654;12.044;2022-09-01T00:30:43;102067.72;;;10.67;100.00
19797;BME280;10058;57.654;12.044;2022-09-01T00:33:09;102064.25;;;10.68;100.00
19797;BME280;10058;57.654;12.044;2022-09-01T00:35:34;102055.56;;;10.71;100.00
19797;BME280;10058;57.654;12.044;2022-09-01T00:37:59;102069.72;;;10.54;100.00
19797;BME280;10058;57.654;12.044;2022-09-01T00:40:25;102081.47;;;10.60;100.00
19797;BME280;10058;57.654;12.044;2022-09-01T00:42:50;102061.22;;;10.61;100.00
19797;BME280;10058;57.654;12.044;2022-09-01T00:45:18;102061.72;;;10.52;100.00
19797;BME280;10058;57.654;12.044;2022-09-01T00:47:46;102054.91;;;10.39;100.00
19797;BME280;10058;57.654;12.044;2022-09-01T00:50:14;102071.91;;;10.44;100.00
19797;BME280;10058;57.654;12.044;2022-09-01T00:52:48;102044.31;;;10.39;100.00
19797;BME280;10058;57.654;12.044;2022-09-01T00:55:18;102074.38;;;10.41;100.00
19797;BME280;10058;57.654;12.044;2022-09-01T00:57:46;102070.63;;;10.36;100.00
19797;BME280;10058;57.654;12.044;2022-09-01T01:00:18;102070.75;;;10.39;100.00
19797;BME280;10058;57.654;12.044;2022-09-01T01:02:45;102080.38;;;10.37;100.00
19797;BME280;10058;57.654;12.044;2022-09-01T01:05:12;102073.94;;;10.32;100.00
19797;BME280;10058;57.654;12.044;2022-09-01T01:07:38;102078.44;;;10.17;100.00
19797;BME280;10058;57.654;12.044;2022-09-01T01:10:08;102065.34;;;10.19;100.00
19797;BME280;10058;57.654;12.044;2022-09-01T01:12:37;102095.03;;;10.15;100.00
19797;BME280;10058;57.654;12.044;2022-09-01T01:15:06;102115.13;;;10.11;100.00
19797;BME280;10058;57.654;12.044;2022-09-01T01:17:32;102110.81;;;10.13;100.00
19797;BME280;10058;57.654;12.044;2022-09-01T01:19:57;102101.41;;;10.18;100.00
19797;BME280;10058;57.654;12.044;2022-09-01T01:23:38;102094.94;;;10.29;100.00
19797;BME280;10058;57.654;12.044;2022-09-01T01:25:58;102082.72;;;10.31;100.00
19797;BME280;10058;57.654;12.044;2022-09-01T01:28:25;102082.56;;;10.28;100.00
19797;BME280;10058;57.654;12.044;2022-09-01T01:30:58;102079.25;;;10.32;100.00
19797;BME280;10058;57.654;12.044;2022-09-01T01:33:31;102089.13;;;10.36;100.00
19797;BME280;10058;57.654;12.044;2022-09-01T01:35:58;102091.91;;;10.39;100.00
19797;BME280;10058;57.654;12.044;2022-09-01T01:38:25;102079.09;;;10.29;100.00
19797;BME280;10058;57.654;12.044;2022-09-01T01:40:52;102080.00;;;10.30;100.00
19797;BME280;10058;57.654;12.044;2022-09-01T01:43:18;102074.47;;;10.25;100.00
19797;BME280;10058;57.654;12.044;2022-09-01T01:45:51;102076.03;;;10.22;100.00
19797;BME280;10058;57.654;12.044;2022-09-01T01:48:20;102085.88;;;10.24;100.00
19797;BME280;10058;57.654;12.044;2022-09-01T01:50:51;102090.41;;;10.27;100.00
19797;BME280;10058;57.654;12.044;2022-09-01T01:53:17;102093.44;;;10.34;100.00
19797;BME280;10058;57.654;12.044;2022-09-01T01:55:44;102076.66;;;10.34;100.00
19797;BME280;10058;57.654;12.044;2022-09-01T01:58:09;102075.28;;;10.24;100.00
19797;BME280;10058;57.654;12.044;2022-09-01T02:00:39;102081.91;;;10.16;100.00
19797;BME280;10058;57.654;12.044;2022-09-01T02:03:06;102081.91;;;10.16;100.00
19797;BME280;10058;57.654;12.044;2022-09-01T02:05:34;102079.94;;;10.12;100.00
19797;BME280;10058;57.654;12.044;2022-09-01T02:08:02;102068.97;;;10.04;100.00
19797;BME280;10058;57.654;12.044;2022-09-01T02:10:32;102075.13;;;10.03;100.00
19797;BME280;10058;57.654;12.044;2022-09-01T02:12:59;102102.44;;;10.04;100.00
19797;BME280;10058;57.654;12.044;2022-09-01T02:15:46;102096.94;;;10.17;100.00
19797;BME280;10058;57.654;12.044;2022-09-01T02:18:15;102088.84;;;10.14;100.00
19797;BME280;10058;57.654;12.044;2022-09-01T02:20:43;102085.22;;;10.12;100.00
19797;BME280;10058;57.654;12.044;2022-09-01T02:23:09;102073.44;;;10.05;100.00
19797;BME280;10058;57.654;12.044;2022-09-01T02:25:37;102084.47;;;9.97;100.00
19797;BME280;10058;57.654;12.044;2022-09-01T02:28:04;102098.03;;;9.87;100.00
19797;BME280;10058;57.654;12.044;2022-09-01T02:30:33;102106.28;;;9.76;100.00
19797;BME280;10058;57.654;12.044;2022-09-01T02:33:01;102115.19;;;9.78;100.00
19797;BME280;10058;57.654;12.044;2022-09-01T02:35:26;102116.19;;;9.81;100.00
19797;BME280;10058;57.654;12.044;2022-09-01T02:38:03;102135.00;;;9.87;100.00
19797;BME280;10058;57.654;12.044;2022-09-01T02:40:29;102117.47;;;9.89;100.00
19797;BME280;10058;57.654;12.044;2022-09-01T02:42:56;102108.28;;;9.81;100.00
19797;BME280;10058;57.654;12.044;2022-09-01T02:45:25;102107.38;;;9.80;100.00
19797;BME280;10058;57.654;12.044;2022-09-01T02:47:50;102099.69;;;9.85;100.00
19797;BME280;10058;57.654;12.044;2022-09-01T02:50:18;102089.78;;;9.81;100.00
19797;BME280;10058;57.654;12.044;2022-09-01T02:52:45;102111.53;;;9.93;100.00
19797;BME280;10058;57.654;12.044;2022-09-01T02:55:14;102107.97;;;9.92;100.00
19797;BME280;10058;57.654;12.044;2022-09-01T02:57:48;102106.25;;;9.93;100.00
19797;BME280;10058;57.654;12.044;2022-09-01T03:00:14;102113.81;;;9.85;100.00
19797;BME280;10058;57.654;12.044;2022-09-01T03:03:00;102114.75;;;9.87;100.00
19797;BME280;10058;57.654;12.044;2022-09-01T03:05:28;102103.97;;;9.83;100.00
19797;BME280;10058;57.654;12.044;2022-09-01T03:07:59;102106.78;;;9.86;100.00
19797;BME280;10058;57.654;12.044;2022-09-01T03:10:28;102096.63;;;9.77;100.00
19797;BME280;10058;57.654;12.044;2022-09-01T03:13:08;102095.72;;;9.76;100.00
19797;BME280;10058;57.654;12.044;2022-09-01T03:15:35;102090.44;;;9.76;100.00
19797;BME280;10058;57.654;12.044;2022-09-01T03:18:02;102095.91;;;9.80;100.00
19797;BME280;10058;57.654;12.044;2022-09-01T03:20:30;102102.19;;;9.65;100.00
19797;BME280;10058;57.654;12.044;2022-09-01T03:22:57;102109.53;;;9.55;100.00
19797;BME280;10058;57.654;12.044;2022-09-01T03:25:24;102112.09;;;9.53;100.00
19797;BME280;10058;57.654;12.044;2022-09-01T03:27:51;102108.38;;;9.66;100.00
19797;BME280;10058;57.654;12.044;2022-09-01T03:30:17;102100.84;;;9.73;100.00
19797;BME280;10058;57.654;12.044;2022-09-01T03:32:42;102100.19;;;9.77;100.00
19797;BME280;10058;57.654;12.044;2022-09-01T03:35:09;102090.78;;;9.83;100.00
19797;BME280;10058;57.654;12.044;2022-09-01T03:37:35;102083.50;;;9.78;100.00
19797;BME280;10058;57.654;12.044;2022-09-01T03:40:03;102087.47;;;9.70;100.00
19797;BME280;10058;57.654;12.044;2022-09-01T03:42:29;102092.09;;;9.74;100.00
19797;BME280;10058;57.654;12.044;2022-09-01T03:44:55;102091.47;;;9.62;100.00
19797;BME280;10058;57.654;12.044;2022-09-01T03:47:21;102083.19;;;9.72;100.00
19797;BME280;10058;57.654;12.044;2022-09-01T03:49:48;102081.06;;;9.65;100.00
19797;BME280;10058;57.654;12.044;2022-09-01T03:52:15;102067.97;;;9.67;100.00
19797;BME280;10058;57.654;12.044;2022-09-01T03:54:42;102070.72;;;9.70;100.00
19797;BME280;10058;57.654;12.044;2022-09-01T03:57:09;102072.50;;;9.69;100.00
19797;BME280;10058;57.654;12.044;2022-09-01T03:59:36;102070.72;;;9.70;100.00
19797;BME280;10058;57.654;12.044;2022-09-01T04:02:03;102058.59;;;9.73;100.00
19797;BME280;10058;57.654;12.044;2022-09-01T04:04:28;102068.50;;;9.77;100.00
19797;BME280;10058;57.654;12.044;2022-09-01T04:06:57;102066.69;;;9.76;100.00
19797;BME280;10058;57.654;12.044;2022-09-01T04:09:24;102065.84;;;9.77;100.00
19797;BME280;10058;57.654;12.044;2022-09-01T04:11:51;102056.94;;;9.75;100.00
19797;BME280;10058;57.654;12.044;2022-09-01T04:14:17;102067.50;;;9.75;100.00
19797;BME280;10058;57.654;12.044;2022-09-01T04:16:43;102060.41;;;9.74;100.00
19797;BME280;10058;57.654;12.044;2022-09-01T04:19:27;102061.41;;;9.76;100.00
19797;BME280;10058;57.654;12.044;2022-09-01T04:21:57;102065.13;;;9.80;100.00
19797;BME280;10058;57.654;12.044;2022-09-01T04:24:24;102062.56;;;9.82;100.00
19797;BME280;10058;57.654;12.044;2022-09-01T04:26:53;102066.34;;;9.87;100.00
19797;BME280;10058;57.654;12.044;2022-09-01T04:29:20;102068.13;;;9.88;100.00
19797;BME280;10058;57.654;12.044;2022-09-01T04:31:52;102062.72;;;9.85;100.00
19797;BME280;10058;57.654;12.044;2022-09-01T04:34:19;102047.69;;;9.84;100.00
19797;BME280;10058;57.654;12.044;2022-09-01T04:36:47;102058.09;;;9.81;100.00
19797;BME280;10058;57.654;12.044;2022-09-01T04:39:12;102057.34;;;9.83;100.00
19797;BME280;10058;57.654;12.044;2022-09-01T04:41:42;102053.31;;;9.73;100.00
19797;BME280;10058;57.654;12.044;2022-09-01T04:44:09;102067.22;;;9.87;100.00
19797;BME280;10058;57.654;12.044;2022-09-01T04:46:37;102056.72;;;9.89;100.00
19797;BME280;10058;57.654;12.044;2022-09-01T04:49:04;102041.97;;;9.92;100.00
19797;BME280;10058;57.654;12.044;2022-09-01T04:51:43;102049.78;;;9.91;100.00
19797;BME280;10058;57.654;12.044;2022-09-01T04:54:10;102060.84;;;10.00;100.00
19797;BME280;10058;57.654;12.044;2022-09-01T04:56:39;102049.44;;;10.01;100.00
19797;BME280;10058;57.654;12.044;2022-09-01T04:59:05;102038.19;;;10.05;100.00
19797;BME280;10058;57.654;12.044;2022-09-01T05:01:33;102040.31;;;10.12;100.00
19797;BME280;10058;57.654;12.044;2022-09-01T05:04:12;102035.47;;;10.20;100.00
19797;BME280;10058;57.654;12.044;2022-09-01T05:06:42;102043.22;;;10.34;100.00
19797;BME280;10058;57.654;12.044;2022-09-01T05:09:10;102037.38;;;10.41;100.00
19797;BME280;10058;57.654;12.044;2022-09-01T05:11:36;102036.34;;;10.56;100.00
19797;BME280;10058;57.654;12.044;2022-09-01T05:14:03;102027.16;;;10.67;100.00
19797;BME280;10058;57.654;12.044;2022-09-01T05:16:29;102030.22;;;10.76;100.00
19797;BME280;10058;57.654;12.044;2022-09-01T05:18:54;102018.13;;;10.81;100.00
19797;BME280;10058;57.654;12.044;2022-09-01T05:21:22;102022.59;;;11.01;100.00
19797;BME280;10058;57.654;12.044;2022-09-01T05:23:53;102026.38;;;11.06;100.00
19797;BME280;10058;57.654;12.044;2022-09-01T05:26:21;102020.56;;;11.15;100.00
19797;BME280;10058;57.654;12.044;2022-09-01T05:28:50;102021.00;;;11.24;100.00
19797;BME280;10058;57.654;12.044;2022-09-01T05:31:18;102006.19;;;11.69;100.00
19797;BME280;10058;57.654;12.044;2022-09-01T05:33:46;102014.34;;;11.74;100.00
19797;BME280;10058;57.654;12.044;2022-09-01T05:36:14;102016.56;;;11.84;100.00
19797;BME280;10058;57.654;12.044;2022-09-01T05:38:40;102042.81;;;11.99;100.00
19797;BME280;10058;57.654;12.044;2022-09-01T05:41:10;102023.59;;;12.47;100.00
19797;BME280;10058;57.654;12.044;2022-09-01T05:43:40;102012.25;;;12.51;100.00
19797;BME280;10058;57.654;12.044;2022-09-01T05:46:12;102002.38;;;12.47;100.00
19797;BME280;10058;57.654;12.044;2022-09-01T05:48:41;102009.56;;;12.50;100.00
19797;BME280;10058;57.654;12.044;2022-09-01T05:51:09;102003.53;;;12.76;100.00
19797;BME280;10058;57.654;12.044;2022-09-01T05:53:35;101994.84;;;14.31;100.00
19797;BME280;10058;57.654;12.044;2022-09-01T05:56:06;101954.53;;;15.70;100.00
19797;BME280;10058;57.654;12.044;2022-09-01T05:58:33;101944.06;;;15.45;100.00
19797;BME280;10058;57.654;12.044;2022-09-01T06:00:59;101941.25;;;15.07;100.00
19797;BME280;10058;57.654;12.044;2022-09-01T06:03:25;101939.38;;;15.35;100.00
19797;BME280;10058;57.654;12.044;2022-09-01T06:05:52;101935.75;;;14.70;100.00
19797;BME280;10058;57.654;12.044;2022-09-01T06:08:22;101909.97;;;14.10;100.00
19797;BME280;10058;57.654;12.044;2022-09-01T06:10:49;101957.50;;;14.28;100.00
19797;BME280;10058;57.654;12.044;2022-09-01T06:13:17;101958.94;;;14.17;100.00
19797;BME280;10058;57.654;12.044;2022-09-01T06:15:45;101967.66;;;14.13;100.00
19797;BME280;10058;57.654;12.044;2022-09-01T06:18:11;101977.63;;;14.20;100.00
19797;BME280;10058;57.654;12.044;2022-09-01T06:20:38;101977.19;;;14.33;100.00
19797;BME280;10058;57.654;12.044;2022-09-01T06:23:05;101971.25;;;14.42;100.00
19797;BME280;10058;57.654;12.044;2022-09-01T06:25:30;101964.38;;;14.48;100.00
19797;BME280;10058;57.654;12.044;2022-09-01T06:27:56;101964.19;;;14.72;100.00
19797;BME280;10058;57.654;12.044;2022-09-01T06:30:22;101959.22;;;14.83;100.00
19797;BME280;10058;57.654;12.044;2022-09-01T06:32:51;101955.03;;;14.92;100.00
19797;BME280;10058;57.654;12.044;2022-09-01T06:35:17;101949.84;;;14.97;100.00
19797;BME280;10058;57.654;12.044;2022-09-01T06:37:43;101947.53;;;15.09;100.00
19797;BME280;10058;57.654;12.044;2022-09-01T06:40:12;101945.81;;;15.11;100.00
19797;BME280;10058;57.654;12.044;2022-09-01T06:42:48;101944.69;;;15.35;100.00
19797;BME280;10058;57.654;12.044;2022-09-01T06:45:16;101924.31;;;15.37;100.00
19797;BME280;10058;57.654;12.044;2022-09-01T06:47:43;101938.56;;;15.70;100.00
19797;BME280;10058;57.654;12.044;2022-09-01T06:50:19;101927.44;;;15.88;100.00
19797;BME280;10058;57.654;12.044;2022-09-01T06:52:49;101935.16;;;15.76;100.00
19797;BME280;10058;57.654;12.044;2022-09-01T06:55:26;101922.28;;;15.95;100.00
19797;BME280;10058;57.654;12.044;2022-09-01T06:57:55;101920.31;;;16.24;100.00
19797;BME280;10058;57.654;12.044;2022-09-01T07:00:22;101922.72;;;16.14;100.00
19797;BME280;10058;57.654;12.044;2022-09-01T07:02:53;101922.59;;;16.48;100.00
19797;BME280;10058;57.654;12.044;2022-09-01T07:05:20;101928.78;;;16.07;100.00
19797;BME280;10058;57.654;12.044;2022-09-01T07:07:51;101927.06;;;16.09;100.00
19797;BME280;10058;57.654;12.044;2022-09-01T07:10:25;101927.69;;;16.36;100.00
19797;BME280;10058;57.654;12.044;2022-09-01T07:12:53;101929.66;;;16.46;100.00
19797;BME280;10058;57.654;12.044;2022-09-01T07:15:20;101930.41;;;16.39;100.00
19797;BME280;10058;57.654;12.044;2022-09-01T07:17:53;101931.75;;;16.59;100.00
19797;BME280;10058;57.654;12.044;2022-09-01T07:20:24;101942.00;;;16.40;100.00
19797;BME280;10058;57.654;12.044;2022-09-01T07:22:54;101935.56;;;16.31;100.00
19797;BME280;10058;57.654;12.044;2022-09-01T07:25:20;101945.63;;;16.43;100.00
19797;BME280;10058;57.654;12.044;2022-09-01T07:27:46;101944.50;;;16.33;100.00
19797;BME280;10058;57.654;12.044;2022-09-01T07:30:19;101942.47;;;16.62;100.00
19797;BME280;10058;57.654;12.044;2022-09-01T07:32:45;101940.91;;;16.70;100.00
19797;BME280;10058;57.654;12.044;2022-09-01T07:35:17;101946.03;;;16.61;100.00
19797;BME280;10058;57.654;12.044;2022-09-01T07:37:44;101946.34;;;16.74;100.00
19797;BME280;10058;57.654;12.044;2022-09-01T07:40:14;101957.00;;;16.74;100.00
19797;BME280;10058;57.654;12.044;2022-09-01T07:42:45;101956.44;;;16.88;100.00
19797;BME280;10058;57.654;12.044;2022-09-01T07:45:12;101955.97;;;17.09;100.00
19797;BME280;10058;57.654;12.044;2022-09-01T07:47:38;101960.88;;;16.88;100.00
19797;BME280;10058;57.654;12.044;2022-09-01T07:50:06;101963.31;;;16.77;100.00
19797;BME280;10058;57.654;12.044;2022-09-01T07:52:39;101964.00;;;16.68;100.00
19797;BME280;10058;57.654;12.044;2022-09-01T07:55:15;101960.59;;;16.74;100.00
19797;BME280;10058;57.654;12.044;2022-09-01T07:57:43;101969.56;;;16.78;100.00
19797;BME280;10058;57.654;12.044;2022-09-01T08:00:11;101955.75;;;16.58;100.00
19797;BME280;10058;57.654;12.044;2022-09-01T08:02:36;101973.41;;;16.92;100.00
19797;BME280;10058;57.654;12.044;2022-09-01T08:05:06;101968.69;;;16.80;100.00
19797;BME280;10058;57.654;12.044;2022-09-01T08:07:33;101972.59;;;16.55;100.00
19797;BME280;10058;57.654;12.044;2022-09-01T08:09:58;101961.06;;;16.98;100.00
19797;BME280;10058;57.654;12.044;2022-09-01T08:12:24;101957.72;;;17.09;100.00
19797;BME280;10058;57.654;12.044;2022-09-01T08:14:49;101962.53;;;17.26;100.00
19797;BME280;10058;57.654;12.044;2022-09-01T08:17:17;101954.81;;;17.42;100.00
19797;BME280;10058;57.654;12.044;2022-09-01T08:19:42;101956.34;;;17.29;100.00
19797;BME280;10058;57.654;12.044;2022-09-01T08:22:07;101957.38;;;17.37;100.00
19797;BME280;10058;57.654;12.044;2022-09-01T08:24:33;101946.03;;;17.49;100.00
19797;BME280;10058;57.654;12.044;2022-09-01T08:26:58;101947.56;;;17.86;100.00
19797;BME280;10058;57.654;12.044;2022-09-01T08:29:24;101955.72;;;17.42;100.00
19797;BME280;10058;57.654;12.044;2022-09-01T08:31:49;101950.69;;;17.60;100.00
19797;BME280;10058;57.654;12.044;2022-09-01T08:34:14;101955.56;;;17.81;100.00
19797;BME280;10058;57.654;12.044;2022-09-01T08:36:41;101945.78;;;17.83;100.00
19797;BME280;10058;57.654;12.044;2022-09-01T08:39:06;101951.00;;;17.77;100.00
19797;BME280;10058;57.654;12.044;2022-09-01T08:41:53;101947.63;;;17.89;100.00
19797;BME280;10058;57.654;12.044;2022-09-01T08:44:34;101932.94;;;18.17;100.00
19797;BME280;10058;57.654;12.044;2022-09-01T08:47:10;101929.00;;;17.93;100.00
19797;BME280;10058;57.654;12.044;2022-09-01T08:49:37;101931.31;;;18.28;100.00
19797;BME280;10058;57.654;12.044;2022-09-01T08:54:51;101936.91;;;18.46;100.00
19797;BME280;10058;57.654;12.044;2022-09-01T08:57:38;101933.19;;;18.35;100.00
19797;BME280;10058;57.654;12.044;2022-09-01T09:00:07;101941.84;;;18.19;100.00
19797;BME280;10058;57.654;12.044;2022-09-01T09:08:09;101927.59;;;18.20;100.00
19797;BME280;10058;57.654;12.044;2022-09-01T09:10:44;101926.69;;;18.80;100.00
19797;BME280;10058;57.654;12.044;2022-09-01T09:16:17;101918.72;;;18.86;100.00
19797;BME280;10058;57.654;12.044;2022-09-01T09:18:49;101909.78;;;18.85;100.00
19797;BME280;10058;57.654;12.044;2022-09-01T09:21:20;101916.97;;;18.89;100.00
19797;BME280;10058;57.654;12.044;2022-09-01T09:23:51;101918.19;;;19.17;100.00
19797;BME280;10058;57.654;12.044;2022-09-01T09:26:18;101908.03;;;18.87;100.00
19797;BME280;10058;57.654;12.044;2022-09-01T09:28:46;101909.09;;;19.03;100.00
19797;BME280;10058;57.654;12.044;2022-09-01T09:31:37;101916.38;;;19.16;100.00
19797;BME280;10058;57.654;12.044;2022-09-01T09:36:53;101904.03;;;19.33;100.00
19797;BME280;10058;57.654;12.044;2022-09-01T09:39:18;101907.09;;;18.84;100.00
19797;BME280;10058;57.654;12.044;2022-09-01T09:42:08;101902.72;;;18.93;100.00
19797;BME280;10058;57.654;12.044;2022-09-01T09:44:40;101901.81;;;18.91;100.00
19797;BME280;10058;57.654;12.044;2022-09-01T09:47:07;101872.56;;;19.12;100.00
19797;BME280;10058;57.654;12.044;2022-09-01T09:49:35;101898.94;;;19.58;100.00
19797;BME280;10058;57.654;12.044;2022-09-01T09:52:20;101898.09;;;19.63;100.00
19797;BME280;10058;57.654;12.044;2022-09-01T09:54:59;101895.41;;;19.62;100.00
19797;BME280;10058;57.654;12.044;2022-09-01T09:57:25;101887.84;;;19.24;100.00
19797;BME280;10058;57.654;12.044;2022-09-01T10:02:36;101890.13;;;19.71;100.00
19797;BME280;10058;57.654;12.044;2022-09-01T10:08:11;101881.50;;;20.21;100.00
19797;BME280;10058;57.654;12.044;2022-09-01T10:10:45;101878.47;;;19.69;100.00
19797;BME280;10058;57.654;12.044;2022-09-01T10:13:17;101875.66;;;19.54;100.00
19797;BME280;10058;57.654;12.044;2022-09-01T10:15:48;101868.75;;;19.86;100.00
19797;BME280;10058;57.654;12.044;2022-09-01T10:18:17;101884.66;;;19.62;100.00
19797;BME280;10058;57.654;12.044;2022-09-01T10:20:53;101878.38;;;19.60;100.00
19797;BME280;10058;57.654;12.044;2022-09-01T10:23:20;101874.09;;;19.83;100.00
19797;BME280;10058;57.654;12.044;2022-09-01T10:25:47;101873.88;;;19.54;100.00
19797;BME280;10058;57.654;12.044;2022-09-01T10:28:18;101868.56;;;19.62;100.00
19797;BME280;10058;57.654;12.044;2022-09-01T10:30:49;101872.75;;;19.32;100.00
19797;BME280;10058;57.654;12.044;2022-09-01T10:33:16;101864.97;;;19.60;100.00
19797;BME280;10058;57.654;12.044;2022-09-01T10:35:44;101865.34;;;20.08;100.00
19797;BME280;10058;57.654;12.044;2022-09-01T10:38:31;101868.09;;;20.21;100.00
19797;BME280;10058;57.654;12.044;2022-09-01T10:40:57;101860.97;;;20.26;100.00
19797;BME280;10058;57.654;12.044;2022-09-01T10:43:53;101872.47;;;20.06;100.00
19797;BME280;10058;57.654;12.044;2022-09-01T10:48:45;101871.50;;;19.97;100.00
19797;BME280;10058;57.654;12.044;2022-09-01T10:53:39;101866.22;;;20.10;100.00
19797;BME280;10058;57.654;12.044;2022-09-01T10:56:17;101853.09;;;20.59;100.00
19797;BME280;10058;57.654;12.044;2022-09-01T10:59:09;101864.53;;;20.29;100.00
19797;BME280;10058;57.654;12.044;2022-09-01T11:04:20;101862.06;;;20.67;100.00
19797;BME280;10058;57.654;12.044;2022-09-01T11:09:41;101855.72;;;20.48;100.00
19797;BME280;10058;57.654;12.044;2022-09-01T11:14:54;101862.03;;;20.57;100.00
19797;BME280;10058;57.654;12.044;2022-09-01T11:20:33;101858.38;;;20.38;100.00
19797;BME280;10058;57.654;12.044;2022-09-01T11:25:33;101845.88;;;20.43;100.00
19797;BME280;10058;57.654;12.044;2022-09-01T11:36:22;101847.88;;;21.26;100.00
19797;BME280;10058;57.654;12.044;2022-09-01T11:38:50;101842.44;;;21.02;100.00
19797;BME280;10058;57.654;12.044;2022-09-01T11:41:22;101837.06;;;21.08;100.00
19797;BME280;10058;57.654;12.044;2022-09-01T11:43:49;101838.03;;;21.37;100.00
19797;BME280;10058;57.654;12.044;2022-09-01T11:46:17;101828.16;;;21.36;100.00
19797;BME280;10058;57.654;12.044;2022-09-01T11:48:46;101835.28;;;21.14;100.00
19797;BME280;10058;57.654;12.044;2022-09-01T11:51:11;101832.66;;;21.28;100.00
19797;BME280;10058;57.654;12.044;2022-09-01T11:53:36;101831.72;;;21.11;100.00
19797;BME280;10058;57.654;12.044;2022-09-01T11:59:00;101825.50;;;21.47;100.00
19797;BME280;10058;57.654;12.044;2022-09-01T12:03:53;101821.00;;;21.26;100.00
19797;BME280;10058;57.654;12.044;2022-09-01T12:06:23;101825.47;;;21.51;100.00
19797;BME280;10058;57.654;12.044;2022-09-01T12:08:55;101819.19;;;21.40;100.00
19797;BME280;10058;57.654;12.044;2022-09-01T12:11:25;101810.22;;;21.47;100.00
19797;BME280;10058;57.654;12.044;2022-09-01T12:14:04;101811.94;;;21.88;100.00
19797;BME280;10058;57.654;12.044;2022-09-01T12:16:31;101816.47;;;21.19;100.00
19797;BME280;10058;57.654;12.044;2022-09-01T12:18:58;101820.97;;;21.20;100.00
19797;BME280;10058;57.654;12.044;2022-09-01T12:23:52;101806.59;;;21.18;100.00
19797;BME280;10058;57.654;12.044;2022-09-01T12:26:19;101809.28;;;21.07;100.00
19797;BME280;10058;57.654;12.044;2022-09-01T12:28:46;101799.44;;;21.06;100.00
19797;BME280;10058;57.654;12.044;2022-09-01T12:31:15;101801.28;;;21.21;100.00
19797;BME280;10058;57.654;12.044;2022-09-01T12:33:43;101798.59;;;21.24;100.00
19797;BME280;10058;57.654;12.044;2022-09-01T12:36:13;101805.75;;;21.24;100.00
19797;BME280;10058;57.654;12.044;2022-09-01T12:38:38;101791.38;;;21.09;100.00
19797;BME280;10058;57.654;12.044;2022-09-01T12:41:15;101799.47;;;21.20;100.00
19797;BME280;10058;57.654;12.044;2022-09-01T12:43:46;101808.38;;;21.01;100.00
19797;BME280;10058;57.654;12.044;2022-09-01T12:46:34;101790.50;;;21.44;100.00
19797;BME280;10058;57.654;12.044;2022-09-01T12:49:14;101789.63;;;21.43;100.00
19797;BME280;10058;57.654;12.044;2022-09-01T12:51:39;101793.22;;;21.27;100.00
19797;BME280;10058;57.654;12.044;2022-09-01T12:54:05;101786.84;;;20.79;100.00
19797;BME280;10058;57.654;12.044;2022-09-01T12:59:06;101780.59;;;21.17;100.00
19797;BME280;10058;57.654;12.044;2022-09-01T13:01:32;101777.91;;;21.17;100.00
19797;BME280;10058;57.654;12.044;2022-09-01T13:06:42;101765.41;;;21.11;100.00
19797;BME280;10058;57.654;12.044;2022-09-01T13:09:07;101768.97;;;21.18;100.00
19797;BME280;10058;57.654;12.044;2022-09-01T13:11:32;101765.38;;;20.98;100.00
19797;BME280;10058;57.654;12.044;2022-09-01T13:13:58;101765.38;;;21.16;100.00
19797;BME280;10058;57.654;12.044;2022-09-01T13:16:23;101768.97;;;21.03;100.00
19797;BME280;10058;57.654;12.044;2022-09-01T13:18:48;101760.00;;;21.07;100.00
19797;BME280;10058;57.654;12.044;2022-09-01T13:21:14;101759.09;;;21.14;100.00
19797;BME280;10058;57.654;12.044;2022-09-01T13:23:39;101756.44;;;21.08;100.00
19797;BME280;10058;57.654;12.044;2022-09-01T13:26:04;101764.50;;;20.94;100.00
19797;BME280;10058;57.654;12.044;2022-09-01T13:28:30;101768.03;;;20.82;100.00
19797;BME280;10058;57.654;12.044;2022-09-01T13:30:57;101770.75;;;20.98;100.00
19797;BME280;10058;57.654;12.044;2022-09-01T13:33:23;101758.22;;;20.94;100.00
19797;BME280;10058;57.654;12.044;2022-09-01T13:35:48;101768.06;;;21.02;100.00
19797;BME280;10058;57.654;12.044;2022-09-01T13:38:14;101727.72;;;20.70;100.00
19797;BME280;10058;57.654;12.044;2022-09-01T13:40:40;101761.78;;;20.99;100.00
19797;BME280;10058;57.654;12.044;2022-09-01T13:43:05;101765.38;;;20.85;100.00